Time;durP1;ratioP1;P1;durP2;ratioP2;P2;SDS_P1;SDS_P2;PMS_P1;PMS_P2;Temp;Humidity;BMP_temperature;BMP_pressure;BME280_temperature;BME280_humidity;BME280_pressure;Samples;Min_cycle;Max_cycle;Signal;HPM_P1;HPM_P2
2021/12/27 00:00:20;;;;;;;14.67;11.27;;;;;;;8.27;96.73;97026.97;4884587;29;21811;-89
2021/12/27 00:02:50;;;;;;;17.50;12.20;;;;;;;8.26;97.09;97019.31;4885633;29;21256;-91
2021/12/27 00:05:18;;;;;;;16.23;11.47;;;;;;;8.25;97.20;97013.25;4886494;29;20747;-90
2021/12/27 00:07:49;;;;;;;15.97;12.13;;;;;;;8.25;97.03;97015.88;4881897;29;20675;-90
2021/12/27 00:10:17;;;;;;;16.00;12.00;;;;;;;8.28;97.40;97018.22;4870391;29;20664;-90
2021/12/27 00:12:46;;;;;;;18.07;12.90;;;;;;;8.28;97.27;97015.63;4871027;29;20640;-90
2021/12/27 00:15:14;;;;;;;14.70;11.27;;;;;;;8.28;96.58;97015.63;4870696;29;20700;-90
2021/12/27 00:17:47;;;;;;;17.70;12.93;;;;;;;8.16;96.59;97010.56;4901886;29;20649;-90
2021/12/27 00:20:17;;;;;;;18.13;12.90;;;;;;;8.10;96.76;97014.44;4884625;29;20629;-90
2021/12/27 00:22:46;;;;;;;16.60;13.13;;;;;;;8.09;97.78;97004.16;4867323;29;20735;-90
2021/12/27 00:25:14;;;;;;;19.53;15.87;;;;;;;8.07;97.49;97009.47;4872375;29;21200;-91
2021/12/27 00:27:43;;;;;;;20.37;15.33;;;;;;;8.05;97.54;97008.72;4869179;29;20635;-91
2021/12/27 00:30:12;;;;;;;25.97;16.70;;;;;;;8.09;98.33;97004.16;4887176;29;20654;-91
2021/12/27 00:32:43;;;;;;;20.23;14.60;;;;;;;8.12;98.44;97011.75;4868742;29;21003;-90
2021/12/27 00:35:14;;;;;;;21.73;14.80;;;;;;;8.15;97.29;97012.34;4886561;29;21186;-90
2021/12/27 00:37:43;;;;;;;19.90;15.10;;;;;;;8.17;97.68;97012.22;4904199;29;20665;-91
2021/12/27 00:40:12;;;;;;;19.83;14.10;;;;;;;8.20;98.01;97007.59;4882975;29;20643;-91
2021/12/27 00:42:41;;;;;;;17.90;13.20;;;;;;;8.21;97.94;97000.63;4872248;29;20724;-90
2021/12/27 00:45:11;;;;;;;17.50;14.13;;;;;;;8.22;98.31;97005.72;4884374;29;20664;-91
2021/12/27 00:47:40;;;;;;;17.70;13.27;;;;;;;8.25;97.65;96997.69;4886973;29;20694;-90
2021/12/27 00:50:09;;;;;;;16.67;14.53;;;;;;;8.29;98.19;96999.13;4887340;29;20668;-90
2021/12/27 00:52:38;;;;;;;20.27;14.20;;;;;;;8.32;97.36;97004.06;4900838;29;21212;-90
2021/12/27 00:55:09;;;;;;;18.83;14.60;;;;;;;8.34;98.05;97001.34;4871689;29;21294;-90
2021/12/27 00:57:37;;;;;;;19.60;14.63;;;;;;;8.33;97.96;96999.69;4900069;29;20643;-89
2021/12/27 01:00:07;;;;;;;18.90;14.47;;;;;;;8.36;96.96;97004.66;4888782;29;20646;-90
2021/12/27 01:02:35;;;;;;;20.40;15.20;;;;;;;8.37;97.16;96991.56;4869475;29;20744;-90
2021/12/27 01:05:04;;;;;;;19.73;14.27;;;;;;;8.33;97.37;96997.94;4882357;29;20663;-91
2021/12/27 01:07:32;;;;;;;21.73;16.90;;;;;;;8.32;97.77;96993.69;4870118;29;21180;-91
2021/12/27 01:10:16;;;;;;;20.67;16.00;;;;;;;8.30;97.51;97000.78;4881794;29;20640;-90
2021/12/27 01:13:01;;;;;;;23.37;15.77;;;;;;;8.29;98.47;96993.09;4889388;29;21111;-90
2021/12/27 01:15:46;;;;;;;26.70;18.07;;;;;;;8.26;98.60;96996.75;4867436;29;21023;-90
2021/12/27 01:18:15;;;;;;;11.63;9.00;;;;;;;8.31;99.04;96997.22;4887924;29;21287;-90
2021/12/27 01:20:44;;;;;;;12.47;9.60;;;;;;;8.39;99.20;96996.63;4885611;29;21192;-90
2021/12/27 01:23:13;;;;;;;13.53;9.83;;;;;;;8.44;99.71;97001.34;4889721;29;20645;-90
2021/12/27 01:25:42;;;;;;;10.43;8.30;;;;;;;8.49;99.43;96999.25;4870238;29;20662;-90
2021/12/27 01:28:10;;;;;;;12.20;8.43;;;;;;;8.56;98.69;96997.00;4886363;29;20660;-89
2021/12/27 01:30:46;;;;;;;10.17;7.70;;;;;;;8.57;99.65;96990.84;4886448;29;20642;-90
2021/12/27 01:33:16;;;;;;;11.20;8.40;;;;;;;8.58;100.00;96988.09;4883845;29;21205;-90
2021/12/27 01:35:45;;;;;;;13.00;9.27;;;;;;;8.59;100.00;96986.34;4884673;29;21212;-90
2021/12/27 01:38:14;;;;;;;11.30;9.23;;;;;;;8.56;99.75;96981.41;4869880;29;20754;-90
2021/12/27 01:40:45;;;;;;;12.63;9.13;;;;;;;8.56;99.83;96981.41;4871536;29;20638;-90
2021/12/27 01:43:21;;;;;;;14.27;10.27;;;;;;;8.59;100.00;96994.97;4868774;29;21289;-90
2021/12/27 01:45:51;;;;;;;11.07;8.77;;;;;;;8.60;100.00;96993.19;4882513;29;20656;-89
2021/12/27 01:48:23;;;;;;;8.97;6.80;;;;;;;8.61;99.59;96994.84;4868780;29;20666;-90
2021/12/27 01:50:53;;;;;;;8.90;6.47;;;;;;;8.64;99.37;96995.44;4885644;29;21220;-90
2021/12/27 01:53:22;;;;;;;6.93;6.13;;;;;;;8.67;100.00;96991.78;4878979;29;20707;-89
2021/12/27 01:55:52;;;;;;;7.30;5.87;;;;;;;8.70;99.86;96989.75;4886592;29;20648;-89
2021/12/27 01:58:22;;;;;;;8.93;6.70;;;;;;;8.73;100.00;96997.31;4880438;29;20658;-89
2021/12/27 02:00:52;;;;;;;8.90;6.53;;;;;;;8.76;99.59;96994.47;4864975;29;20644;-89
2021/12/27 02:03:24;;;;;;;7.63;6.50;;;;;;;8.79;99.16;96993.41;4883474;29;21032;-90
2021/12/27 02:05:52;;;;;;;11.20;7.00;;;;;;;8.79;99.07;96977.81;4866884;29;20703;-90
2021/12/27 02:08:21;;;;;;;9.80;7.40;;;;;;;8.80;99.59;96984.69;4870355;29;20766;-90
2021/12/27 02:10:50;;;;;;;11.20;8.50;;;;;;;8.80;99.02;96980.28;4888382;29;20635;-90
2021/12/27 02:13:19;;;;;;;10.80;7.23;;;;;;;8.78;99.26;96973.56;4878744;29;20636;-90
2021/12/27 02:15:48;;;;;;;7.97;6.33;;;;;;;8.77;99.73;96966.72;4885421;29;20636;-89
2021/12/27 02:18:16;;;;;;;7.47;6.00;;;;;;;8.80;99.52;96969.91;4873640;29;20650;-90
2021/12/27 02:20:46;;;;;;;6.77;4.80;;;;;;;8.82;99.60;96969.78;4891385;29;20640;-90
2021/12/27 02:23:16;;;;;;;6.93;5.33;;;;;;;8.86;99.06;96974.59;4891188;29;20742;-90
2021/12/27 02:25:46;;;;;;;7.40;6.33;;;;;;;8.90;100.00;96975.19;4905685;29;21026;-90
2021/12/27 02:28:15;;;;;;;7.37;6.13;;;;;;;8.90;99.72;96978.63;4872706;29;20647;-90
2021/12/27 02:30:45;;;;;;;8.70;6.33;;;;;;;8.93;98.74;96976.59;4891701;29;20653;-90
2021/12/27 02:33:13;;;;;;;6.30;5.30;;;;;;;8.92;98.69;96974.94;4889744;29;20728;-89
2021/12/27 02:35:44;;;;;;;9.00;7.53;;;;;;;8.93;98.54;96968.81;4869049;29;20637;-89
2021/12/27 02:38:15;;;;;;;11.40;8.60;;;;;;;8.89;98.61;96973.56;4898253;29;20636;-90
2021/12/27 02:40:44;;;;;;;16.23;10.67;;;;;;;8.83;97.74;96974.03;4885649;29;20661;-89
2021/12/27 02:43:14;;;;;;;12.33;9.47;;;;;;;8.76;97.17;96970.25;4888094;29;20649;-89
2021/12/27 02:45:44;;;;;;;15.80;9.80;;;;;;;8.71;97.00;96970.63;4866577;29;21256;-89
2021/12/27 02:48:13;;;;;;;13.20;9.73;;;;;;;8.65;97.20;96970.28;4869435;29;20657;-89
2021/12/27 02:50:43;;;;;;;12.27;8.60;;;;;;;8.63;96.75;96962.59;4902265;29;20650;-90
2021/12/27 02:53:13;;;;;;;10.50;7.77;;;;;;;8.59;97.47;96961.19;4871094;29;20653;-89
2021/12/27 02:55:42;;;;;;;12.17;9.40;;;;;;;8.60;98.14;96960.25;4887796;29;20650;-89
2021/12/27 02:58:11;;;;;;;13.87;10.67;;;;;;;8.59;98.03;96973.38;4885299;29;20746;-90
2021/12/27 03:00:51;;;;;;;13.00;9.60;;;;;;;8.49;97.82;96960.28;4868661;29;20646;-90
2021/12/27 03:03:19;;;;;;;12.13;9.37;;;;;;;8.47;98.14;96962.16;4886045;29;21308;-89
2021/12/27 03:05:48;;;;;;;11.03;8.67;;;;;;;8.49;98.21;96964.63;4870235;29;21246;-89
2021/12/27 03:08:19;;;;;;;13.67;9.40;;;;;;;8.52;98.63;96969.59;4874965;29;20640;-90
2021/12/27 03:10:50;;;;;;;10.37;6.53;;;;;;;8.51;99.23;96963.56;4890600;29;21200;-90
2021/12/27 03:13:20;;;;;;;11.23;8.10;;;;;;;8.56;99.42;96963.22;4869788;29;20642;-89
2021/12/27 03:15:51;;;;;;;12.60;8.63;;;;;;;8.60;98.48;96956.81;4887568;29;20642;-90
2021/12/27 03:18:19;;;;;;;8.67;7.33;;;;;;;8.62;99.44;96953.16;4898374;29;20992;-89
2021/12/27 03:20:48;;;;;;;9.30;6.80;;;;;;;8.65;98.90;96957.28;4884993;29;20637;-90
2021/12/27 03:23:18;;;;;;;11.27;7.90;;;;;;;8.65;98.61;96954.69;4873695;29;20695;-89
2021/12/27 03:25:46;;;;;;;10.63;8.00;;;;;;;8.62;97.54;96960.13;4890445;29;21286;-90
2021/12/27 03:28:15;;;;;;;13.23;9.63;;;;;;;8.54;98.22;96952.94;4887759;29;21227;-90
2021/12/27 03:30:43;;;;;;;12.50;9.27;;;;;;;8.52;97.86;96948.78;4870042;29;20640;-90
2021/12/27 03:33:12;;;;;;;10.27;8.47;;;;;;;8.49;97.37;96943.84;4887968;29;20673;-90
2021/12/27 03:35:51;;;;;;;10.20;8.47;;;;;;;8.47;97.33;96943.97;4889996;29;20638;-90
2021/12/27 03:38:20;;;;;;;12.47;8.83;;;;;;;8.47;98.13;96946.56;4890844;29;20647;-89
2021/12/27 03:40:50;;;;;;;12.83;9.30;;;;;;;8.47;96.81;96943.97;4902431;29;20649;-90
2021/12/27 03:43:18;;;;;;;12.30;9.20;;;;;;;8.43;97.00;96954.72;4874356;29;20642;-90
2021/12/27 03:45:46;;;;;;;11.10;9.10;;;;;;;8.43;97.32;96952.13;4887250;29;20673;-89
2021/12/27 03:48:15;;;;;;;15.10;9.30;;;;;;;8.43;96.68;96949.50;4905629;29;20834;-90
2021/12/27 03:50:43;;;;;;;12.90;9.60;;;;;;;8.40;97.78;96948.94;4885921;29;20647;-90
2021/12/27 03:53:11;;;;;;;11.97;9.33;;;;;;;8.36;97.25;96934.53;4870284;29;20636;-89
2021/12/27 03:55:41;;;;;;;12.40;9.73;;;;;;;8.37;97.44;96944.78;4869754;29;20646;-90
2021/12/27 03:58:12;;;;;;;13.07;10.17;;;;;;;8.37;97.40;96946.56;4873341;29;20636;-90
2021/12/27 04:00:59;;;;;;;12.70;9.30;;;;;;;8.33;97.53;96933.00;4888890;29;21290;-90
2021/12/27 04:03:29;;;;;;;12.97;8.73;;;;;;;8.35;96.85;96944.09;4887082;29;20691;-90
2021/12/27 04:05:57;;;;;;;11.30;8.97;;;;;;;8.34;97.07;96944.22;4886048;29;20672;-90
2021/12/27 04:08:26;;;;;;;12.47;9.90;;;;;;;8.35;97.46;96946.69;4888587;29;20652;-90
2021/12/27 04:10:56;;;;;;;13.37;9.87;;;;;;;8.32;97.82;96928.75;4886906;29;20646;-90
2021/12/27 04:13:25;;;;;;;11.20;9.10;;;;;;;8.32;96.52;96936.53;4887797;29;20642;-90
2021/12/27 04:15:53;;;;;;;11.13;8.93;;;;;;;8.32;96.95;96935.72;4882187;29;20643;-90
2021/12/27 04:18:22;;;;;;;12.33;9.60;;;;;;;8.28;96.20;96929.09;4884695;29;20644;-90
2021/12/27 04:20:50;;;;;;;11.50;8.87;;;;;;;8.28;97.27;96931.72;4869346;29;20646;-90
2021/12/27 04:23:18;;;;;;;13.50;9.07;;;;;;;8.24;97.78;96931.13;4874574;29;20636;-90
2021/12/27 04:25:47;;;;;;;12.90;9.87;;;;;;;8.18;97.60;96939.41;4866096;29;20659;-89
2021/12/27 04:28:17;;;;;;;12.00;9.50;;;;;;;8.18;97.09;96934.19;4868539;29;20629;-90
2021/12/27 04:30:45;;;;;;;17.23;9.03;;;;;;;8.23;97.92;96933.84;4887793;29;20642;-90
2021/12/27 04:33:13;;;;;;;7.83;6.70;;;;;;;8.22;97.00;96924.38;4871740;29;21325;-90
2021/12/27 04:35:42;;;;;;;11.80;8.40;;;;;;;8.20;98.14;96921.91;4884871;29;20678;-90
2021/12/27 04:38:10;;;;;;;13.33;9.23;;;;;;;8.17;98.05;96916.97;4868579;29;20747;-90
2021/12/27 04:40:40;;;;;;;8.70;6.70;;;;;;;8.16;98.02;96925.72;4872798;29;21317;-90
2021/12/27 04:43:11;;;;;;;8.70;5.60;;;;;;;8.21;99.54;96933.13;4886329;29;20735;-89
2021/12/27 04:45:43;;;;;;;8.87;7.10;;;;;;;8.34;100.00;96939.84;4880793;29;20644;-90
2021/12/27 04:48:11;;;;;;;9.10;6.40;;;;;;;8.44;99.85;96940.78;4871431;29;20668;-90
2021/12/27 04:50:40;;;;;;;12.57;8.10;;;;;;;8.48;99.24;96937.81;4886356;29;21206;-90
2021/12/27 04:53:08;;;;;;;13.10;9.43;;;;;;;8.44;97.96;96933.00;4869304;29;20651;-90
2021/12/27 04:55:36;;;;;;;13.00;9.70;;;;;;;8.39;97.19;96942.06;4884368;29;20762;-90
2021/12/27 04:58:07;;;;;;;13.47;10.43;;;;;;;8.24;97.75;96933.72;4885858;29;20633;-90
2021/12/27 05:00:35;;;;;;;11.47;8.90;;;;;;;8.21;97.54;96931.38;4900123;29;20648;-90
2021/12/27 05:03:05;;;;;;;11.40;8.93;;;;;;;8.22;97.29;96930.41;4888235;29;21208;-90
2021/12/27 05:05:34;;;;;;;17.30;11.83;;;;;;;8.23;96.56;96921.69;4866056;29;21311;-90
2021/12/27 05:08:02;;;;;;;13.07;9.33;;;;;;;8.25;96.79;96919.78;4888748;29;20669;-90
2021/12/27 05:10:31;;;;;;;16.13;10.00;;;;;;;8.27;96.71;96917.06;4898629;29;20646;-90
2021/12/27 05:13:00;;;;;;;11.57;9.40;;;;;;;8.27;96.22;96923.09;4869766;29;20663;-90
2021/12/27 05:15:28;;;;;;;12.43;9.27;;;;;;;8.28;96.13;96927.31;4868228;29;21222;-90
2021/12/27 05:17:56;;;;;;;12.57;9.30;;;;;;;8.31;96.81;96923.69;4889541;29;20693;-90
2021/12/27 05:20:25;;;;;;;12.10;9.47;;;;;;;8.35;97.34;96914.72;4887345;29;21014;-90
2021/12/27 05:22:54;;;;;;;11.43;8.27;;;;;;;8.36;96.78;96913.75;4870791;29;20650;-90
2021/12/27 05:25:22;;;;;;;11.77;9.00;;;;;;;8.38;97.58;96920.47;4872027;29;20644;-89
2021/12/27 05:27:50;;;;;;;8.80;7.40;;;;;;;8.44;97.91;96920.00;4868686;29;20668;-90
2021/12/27 05:30:19;;;;;;;8.00;6.80;;;;;;;8.43;96.55;96907.94;4866078;29;20655;-90
2021/12/27 05:32:48;;;;;;;11.23;8.57;;;;;;;8.41;96.71;96911.63;4888304;29;20646;-91
2021/12/27 05:35:16;;;;;;;14.03;10.07;;;;;;;8.37;96.76;96908.44;4884523;29;20639;-90
2021/12/27 05:37:46;;;;;;;14.07;10.43;;;;;;;8.37;97.44;96912.81;4867784;29;20689;-90
2021/12/27 05:40:17;;;;;;;14.13;9.70;;;;;;;8.36;97.63;96906.81;4873111;29;21169;-90
2021/12/27 05:42:46;;;;;;;12.03;9.30;;;;;;;8.36;97.41;96909.41;4868512;29;20649;-90
2021/12/27 05:45:14;;;;;;;12.10;9.50;;;;;;;8.35;97.05;96907.72;4867901;29;20742;-90
2021/12/27 05:47:43;;;;;;;11.87;8.97;;;;;;;8.34;97.48;96903.47;4886638;29;20678;-90
2021/12/27 05:50:12;;;;;;;12.23;9.17;;;;;;;8.37;96.64;96910.22;4887243;29;20667;-91
2021/12/27 05:52:40;;;;;;;12.20;8.90;;;;;;;8.34;97.09;96913.06;4869709;29;20654;-90
2021/12/27 05:55:11;;;;;;;11.63;8.93;;;;;;;8.33;97.18;96906.19;4867594;29;20644;-91
2021/12/27 05:57:40;;;;;;;11.63;9.00;;;;;;;8.33;97.04;96909.63;4885079;29;20779;-90
2021/12/27 06:00:10;;;;;;;9.40;7.87;;;;;;;8.34;96.19;96906.06;4885839;29;20651;-90
2021/12/27 06:02:42;;;;;;;13.50;9.40;;;;;;;8.32;96.15;96904.56;4888232;29;20640;-90
2021/12/27 06:05:11;;;;;;;12.10;8.80;;;;;;;8.31;97.31;96902.91;4870046;29;20634;-90
2021/12/27 06:07:40;;;;;;;11.53;8.50;;;;;;;8.32;96.34;96907.97;4887350;29;20672;-90
2021/12/27 06:10:10;;;;;;;11.90;9.20;;;;;;;8.33;97.21;96901.84;4884854;29;20697;-90
2021/12/27 06:12:39;;;;;;;11.13;8.53;;;;;;;8.33;97.06;96901.84;4885219;29;20650;-90
2021/12/27 06:15:08;;;;;;;11.30;8.47;;;;;;;8.31;96.32;96897.72;4867923;29;20656;-90
2021/12/27 06:17:37;;;;;;;12.93;8.93;;;;;;;8.33;95.85;96898.41;4885141;29;21011;-91
2021/12/27 06:20:07;;;;;;;9.80;8.17;;;;;;;8.30;97.17;96891.69;4866895;29;21236;-90
2021/12/27 06:22:36;;;;;;;11.70;8.40;;;;;;;8.30;95.72;96889.09;4887450;29;20702;-90
2021/12/27 06:25:05;;;;;;;11.40;9.13;;;;;;;8.28;96.88;96890.97;4870667;29;20638;-90
2021/12/27 06:27:34;;;;;;;12.23;9.23;;;;;;;8.27;96.69;96891.94;4866836;29;20663;-91
2021/12/27 06:30:06;;;;;;;12.00;9.03;;;;;;;8.28;95.79;96884.97;4873018;29;20652;-91
2021/12/27 06:32:35;;;;;;;12.00;8.90;;;;;;;8.27;95.49;96883.28;4899593;29;20705;-90
2021/12/27 06:35:04;;;;;;;11.30;8.30;;;;;;;8.26;96.32;96892.06;4868133;29;20658;-89
2021/12/27 06:37:32;;;;;;;12.97;9.50;;;;;;;8.26;95.97;96887.69;4882938;29;22696;-90
2021/12/27 06:40:01;;;;;;;12.10;9.10;;;;;;;8.27;96.95;96884.16;4899178;29;21453;-91
2021/12/27 06:42:29;;;;;;;11.37;8.60;;;;;;;8.27;96.23;96885.91;4875113;29;20648;-90
2021/12/27 06:44:59;;;;;;;11.97;8.67;;;;;;;8.27;97.05;96876.34;4899989;29;20749;-91
2021/12/27 06:47:27;;;;;;;12.20;8.70;;;;;;;8.29;96.44;96878.81;4887196;29;20662;-91
2021/12/27 06:49:55;;;;;;;13.17;8.60;;;;;;;8.24;96.94;96881.78;4882125;29;20650;-90
2021/12/27 06:52:25;;;;;;;12.73;9.27;;;;;;;8.24;95.78;96874.00;4884132;29;20653;-90
2021/12/27 06:54:53;;;;;;;30.27;9.83;;;;;;;8.21;95.94;96874.25;4884136;29;20658;-90
2021/12/27 06:57:30;;;;;;;12.27;8.43;;;;;;;8.21;96.60;96869.03;4866299;29;20642;-90
2021/12/27 07:00:01;;;;;;;12.37;8.93;;;;;;;8.18;96.28;96864.09;4867995;29;20750;-90
2021/12/27 07:02:30;;;;;;;13.70;9.00;;;;;;;8.16;96.76;96857.34;4889310;29;20644;-90
2021/12/27 07:04:58;;;;;;;12.47;8.87;;;;;;;8.12;96.49;96861.16;4888094;29;20782;-90
2021/12/27 07:07:27;;;;;;;14.10;9.17;;;;;;;8.09;95.27;96862.19;4870745;29;20880;-90
2021/12/27 07:09:55;;;;;;;32.70;10.60;;;;;;;8.06;94.79;96862.41;4905806;29;20656;-90
2021/12/27 07:12:24;;;;;;;14.07;9.00;;;;;;;8.01;95.60;96859.38;4877283;29;20653;-90
2021/12/27 07:14:53;;;;;;;29.93;9.93;;;;;;;7.97;94.94;96850.16;4888903;29;20665;-90
2021/12/27 07:17:23;;;;;;;22.50;9.20;;;;;;;7.96;95.29;96848.50;4887072;29;20734;-90
2021/12/27 07:19:51;;;;;;;14.63;9.30;;;;;;;7.93;94.84;96860.06;4905947;29;20640;-90
2021/12/27 07:22:20;;;;;;;16.50;11.50;;;;;;;7.86;95.61;96867.50;4886318;29;21021;-90
2021/12/27 07:24:48;;;;;;;32.50;13.97;;;;;;;7.85;95.26;96865.00;4871002;29;22247;-89
2021/12/27 07:27:16;;;;;;;72.70;15.10;;;;;;;7.80;96.45;96865.38;4887443;29;20671;-90
2021/12/27 07:29:44;;;;;;;22.10;9.33;;;;;;;7.75;95.99;96877.06;4891688;29;20729;-89
2021/12/27 07:32:13;;;;;;;41.27;11.50;;;;;;;7.71;94.77;96865.25;4871167;29;20698;-90
2021/12/27 07:34:43;;;;;;;54.90;11.53;;;;;;;7.69;95.85;96872.34;4871884;29;20640;-90
2021/12/27 07:37:12;;;;;;;24.87;10.50;;;;;;;7.69;95.77;96872.34;4888505;29;20653;-90
2021/12/27 07:39:40;;;;;;;36.27;9.23;;;;;;;7.67;96.18;96869.03;4889457;29;20734;-90
2021/12/27 07:42:10;;;;;;;24.43;9.37;;;;;;;7.64;94.78;96871.88;4890728;29;20703;-90
2021/12/27 07:44:38;;;;;;;34.47;9.63;;;;;;;7.62;95.72;96871.16;4890136;29;20661;-90
2021/12/27 07:47:06;;;;;;;41.27;9.20;;;;;;;7.61;95.05;96870.31;4900334;29;20646;-89
2021/12/27 07:49:34;;;;;;;32.57;9.03;;;;;;;7.59;94.90;96867.03;4886440;29;20669;-90
2021/12/27 07:52:05;;;;;;;47.63;10.40;;;;;;;7.59;95.92;96866.19;4886196;29;20758;-90
2021/12/27 07:54:33;;;;;;;33.40;8.57;;;;;;;7.57;94.41;96868.09;4869761;29;21089;-89
2021/12/27 07:57:01;;;;;;;42.27;9.17;;;;;;;7.53;94.95;96869.25;4868753;29;20639;-89
2021/12/27 07:59:29;;;;;;;29.87;9.17;;;;;;;7.52;94.51;96875.41;4883276;29;20634;-90
2021/12/27 08:01:58;;;;;;;17.40;8.10;;;;;;;7.50;95.34;96865.13;4886026;29;20772;-90
2021/12/27 08:04:26;;;;;;;17.10;7.13;;;;;;;7.50;94.97;96866.88;4881669;29;20658;-90
2021/12/27 08:06:54;;;;;;;21.67;7.20;;;;;;;7.51;95.74;96873.72;4904681;29;21235;-90
2021/12/27 08:09:26;;;;;;;15.63;8.03;;;;;;;7.50;94.68;96867.72;4886706;29;20674;-91
2021/12/27 08:11:54;;;;;;;11.80;6.73;;;;;;;7.52;95.13;96870.22;4887362;29;21216;-90
2021/12/27 08:14:22;;;;;;;17.87;7.00;;;;;;;7.53;94.85;96872.69;4885193;29;20649;-90
2021/12/27 08:16:50;;;;;;;15.87;7.33;;;;;;;7.56;95.43;96869.00;4884645;29;20643;-90
2021/12/27 08:19:18;;;;;;;18.37;10.50;;;;;;;7.56;94.26;96866.41;4888473;29;20657;-90
2021/12/27 08:21:47;;;;;;;15.30;9.60;;;;;;;7.59;94.28;96868.78;4884558;29;20647;-90
2021/12/27 08:24:15;;;;;;;18.23;9.10;;;;;;;7.59;95.01;96861.00;4900026;29;20787;-90
2021/12/27 08:26:45;;;;;;;17.07;8.60;;;;;;;7.62;95.27;96858.16;4884616;29;20711;-90
2021/12/27 08:29:14;;;;;;;13.00;7.10;;;;;;;7.65;94.16;96863.13;4882447;29;20680;-90
2021/12/27 08:31:42;;;;;;;13.63;7.17;;;;;;;7.70;94.35;96861.03;4870237;29;21016;-86
2021/12/27 08:34:10;;;;;;;8.93;6.20;;;;;;;7.74;95.35;96852.03;4867673;29;21478;-88
2021/12/27 08:36:38;;;;;;;8.53;6.30;;;;;;;7.83;94.31;96859.13;4869871;29;20738;-89
2021/12/27 08:39:07;;;;;;;16.17;7.60;;;;;;;7.90;94.95;96855.13;4887421;29;20643;-89
2021/12/27 08:41:35;;;;;;;8.10;7.13;;;;;;;7.95;94.81;96848.59;4891079;29;20651;-89
2021/12/27 08:44:05;;;;;;;20.10;11.03;;;;;;;7.94;93.77;96848.72;4888611;29;21284;-89
2021/12/27 08:46:33;;;;;;;22.70;12.83;;;;;;;7.94;93.17;96852.16;4874268;29;20742;-89
2021/12/27 08:49:02;;;;;;;10.20;7.00;;;;;;;7.94;94.67;96854.78;4885227;29;20682;-90
2021/12/27 08:51:31;;;;;;;14.27;7.10;;;;;;;7.96;93.62;96866.66;4870016;29;20654;-89
2021/12/27 08:53:59;;;;;;;20.63;8.27;;;;;;;8.03;94.46;96867.03;4900813;29;20659;-89
2021/12/27 08:56:27;;;;;;;27.37;7.43;;;;;;;8.08;95.78;96870.91;4869957;29;20737;-89
2021/12/27 08:58:55;;;;;;;32.50;8.40;;;;;;;8.12;94.39;96874.13;4903085;29;20688;-89
2021/12/27 09:01:26;;;;;;;18.53;8.10;;;;;;;8.21;94.72;96868.19;4893577;29;21624;-89
2021/12/27 09:03:54;;;;;;;25.57;9.03;;;;;;;8.32;95.14;96879.41;4867031;29;20644;-91
2021/12/27 09:06:23;;;;;;;37.20;11.57;;;;;;;8.36;94.64;96873.03;4871196;29;20676;-90
2021/12/27 09:08:51;;;;;;;69.70;17.67;;;;;;;8.43;95.54;96868.16;4888499;29;21259;-91
2021/12/27 09:11:19;;;;;;;37.90;13.40;;;;;;;8.47;95.68;96868.63;4868093;29;20646;-91
2021/12/27 09:13:47;;;;;;;31.50;9.47;;;;;;;8.49;95.30;96865.91;4873841;29;21001;-92
2021/12/27 09:16:35;;;;;;;31.37;11.60;;;;;;;8.50;94.82;96870.16;4869653;29;21635;-92
2021/12/27 09:19:05;;;;;;;20.27;9.57;;;;;;;8.50;94.24;96863.19;4869658;29;21345;-92
2021/12/27 09:21:33;;;;;;;22.83;9.37;;;;;;;8.53;94.86;96867.31;4882587;29;20653;-91
2021/12/27 09:24:01;;;;;;;22.53;8.37;;;;;;;8.59;94.83;96867.66;4884721;29;20644;-90
2021/12/27 09:26:29;;;;;;;21.87;10.23;;;;;;;8.61;94.28;96868.34;4884103;29;21227;-91
2021/12/27 09:29:00;;;;;;;22.63;10.33;;;;;;;8.63;94.97;96869.06;4896368;29;20675;-91
2021/12/27 09:31:29;;;;;;;29.13;11.23;;;;;;;8.70;95.42;96864.19;4884321;29;20747;-88
2021/12/27 09:33:58;;;;;;;18.37;9.87;;;;;;;8.80;95.92;96860.72;4883625;29;20671;-93
2021/12/27 09:36:27;;;;;;;28.57;14.77;;;;;;;9.10;95.28;96864.25;4885198;29;20771;-92
2021/12/27 09:38:55;;;;;;;32.80;18.40;;;;;;;9.30;94.90;96850.41;4890103;29;20653;-91
2021/12/27 09:41:23;;;;;;;39.67;18.80;;;;;;;9.41;94.11;96842.53;4868329;29;20735;-91
2021/12/27 09:43:52;;;;;;;35.50;17.90;;;;;;;9.42;93.82;96844.19;4868658;29;20735;-89
2021/12/27 09:46:21;;;;;;;43.10;27.37;;;;;;;9.42;94.30;96846.78;4863759;29;20662;-90
2021/12/27 09:48:53;;;;;;;27.07;17.00;;;;;;;9.44;93.95;96844.88;4882578;29;20728;-89
2021/12/27 09:51:23;;;;;;;11.80;8.63;;;;;;;9.51;94.96;96838.22;4869617;29;20707;-89
2021/12/27 09:53:53;;;;;;;9.63;7.43;;;;;;;9.59;95.47;96854.00;4903258;29;20646;-90
2021/12/27 09:56:21;;;;;;;9.57;7.07;;;;;;;9.67;95.26;96839.41;4884286;29;20654;-90
2021/12/27 09:58:50;;;;;;;9.83;7.67;;;;;;;9.70;95.49;96848.75;4891327;29;20634;-90
2021/12/27 10:01:21;;;;;;;8.87;7.27;;;;;;;9.67;95.67;96846.41;4884114;29;20649;-90
2021/12/27 10:03:52;;;;;;;20.77;12.07;;;;;;;9.60;94.80;96842.66;4881287;29;20636;-89
2021/12/27 10:06:25;;;;;;;27.83;16.10;;;;;;;9.60;95.09;96837.44;4883881;29;20667;-89
2021/12/27 10:08:56;;;;;;;29.77;15.63;;;;;;;9.60;95.44;96824.44;4888223;29;20752;-90
2021/12/27 10:11:31;;;;;;;25.20;16.73;;;;;;;9.52;94.76;96829.47;4887418;29;21095;-91
2021/12/27 10:14:06;;;;;;;25.73;16.27;;;;;;;9.50;94.96;96815.75;4868925;29;20649;-89
2021/12/27 10:16:36;;;;;;;26.20;18.03;;;;;;;9.53;95.24;96815.47;4885476;29;20627;-89
2021/12/27 10:19:07;;;;;;;22.20;15.90;;;;;;;9.58;95.48;96821.16;4881542;29;20635;-89
2021/12/27 10:21:41;;;;;;;23.73;16.67;;;;;;;9.64;96.30;96812.81;4888201;29;20656;-89
2021/12/27 10:24:14;;;;;;;20.90;14.53;;;;;;;9.87;95.98;96808.09;4894431;29;20662;-89
2021/12/27 10:26:43;;;;;;;17.57;12.80;;;;;;;10.15;96.24;96815.22;4864705;29;20657;-90
2021/12/27 10:29:15;;;;;;;13.00;9.90;;;;;;;10.29;95.45;96807.00;4888283;29;20966;-91
2021/12/27 10:31:58;;;;;;;22.13;15.63;;;;;;;10.26;93.44;96802.06;4886101;29;20648;-91
2021/12/27 10:34:29;;;;;;;20.43;14.57;;;;;;;10.31;93.67;96794.66;4885442;29;20666;-90
2021/12/27 10:37:18;;;;;;;19.37;14.23;;;;;;;10.42;94.63;96802.38;4885247;29;20726;-90
2021/12/27 10:39:52;;;;;;;21.90;14.40;;;;;;;10.53;93.84;96795.25;4884352;29;20684;-91
2021/12/27 10:42:23;;;;;;;13.93;11.20;;;;;;;10.64;93.73;96786.47;4902843;29;20648;-91
2021/12/27 10:44:53;;;;;;;11.53;9.83;;;;;;;10.69;94.33;96784.25;4887871;29;20645;-91
2021/12/27 10:47:33;;;;;;;17.57;13.10;;;;;;;10.76;94.07;96783.59;4884947;29;20642;-93
2021/12/27 10:50:05;;;;;;;32.63;21.93;;;;;;;10.74;94.25;96782.91;4889647;29;20799;-89
2021/12/27 10:52:51;;;;;;;20.83;15.30;;;;;;;10.70;93.92;96783.31;4888313;29;20715;-88
2021/12/27 10:55:21;;;;;;;11.60;9.00;;;;;;;10.78;93.58;96783.44;4885020;29;20679;-88
2021/12/27 10:57:50;;;;;;;9.17;6.30;;;;;;;10.89;94.36;96782.34;4894474;29;20714;-89
2021/12/27 11:00:30;;;;;;;10.17;7.87;;;;;;;10.96;93.98;96773.00;4870110;29;20756;-88
2021/12/27 11:03:02;;;;;;;11.27;8.20;;;;;;;11.05;92.87;96766.13;4885013;29;20654;-89
2021/12/27 11:05:32;;;;;;;11.50;7.10;;;;;;;11.15;93.00;96757.31;4872313;29;20720;-90
2021/12/27 11:08:05;;;;;;;6.33;3.97;;;;;;;11.27;91.53;96760.59;4891406;29;20659;-89
2021/12/27 11:10:36;;;;;;;4.97;4.00;;;;;;;11.36;90.55;96756.16;4878544;29;20803;-89
2021/12/27 11:13:06;;;;;;;4.83;4.00;;;;;;;11.45;89.57;96764.91;4903901;29;20781;-90
2021/12/27 11:15:36;;;;;;;4.40;3.20;;;;;;;11.49;87.98;96761.91;4890904;29;20747;-89
2021/12/27 11:18:05;;;;;;;6.07;4.80;;;;;;;11.55;90.36;96760.53;4870283;29;20647;-89
2021/12/27 11:20:35;;;;;;;23.77;12.97;;;;;;;11.67;89.94;96762.00;4887522;29;20693;-90
2021/12/27 11:23:05;;;;;;;4.73;3.80;;;;;;;11.69;87.83;96753.03;4886474;29;20645;-88
2021/12/27 11:25:36;;;;;;;4.20;3.40;;;;;;;11.70;88.87;96759.91;4869143;29;20630;-90
2021/12/27 11:28:06;;;;;;;3.90;2.80;;;;;;;11.75;87.85;96758.50;4891660;29;20624;-89
2021/12/27 11:30:36;;;;;;;8.90;2.73;;;;;;;11.78;88.64;96760.81;4869557;29;20663;-89
2021/12/27 11:33:09;;;;;;;3.27;2.87;;;;;;;11.80;87.79;96753.69;4888335;29;20636;-88
2021/12/27 11:35:39;;;;;;;4.20;3.20;;;;;;;11.87;88.94;96748.69;4879803;29;20639;-90
2021/12/27 11:38:19;;;;;;;4.57;2.73;;;;;;;11.92;87.33;96752.53;4883037;29;20657;-90
2021/12/27 11:40:49;;;;;;;6.67;2.97;;;;;;;11.93;87.23;96748.13;4881842;29;20747;-89
2021/12/27 11:43:17;;;;;;;3.30;2.80;;;;;;;11.91;86.50;96745.66;4882769;29;20641;-90